• Join FlightAware (Why Join?)
  • Login
  • US Flag 
04:11AM EDT


 

Airport Tracker/Info


-or-


 

Live Flight TrackerFlight Track Log ✈ N1419D ✈ 07-Mar-2014 ✈ KDAB - KDAB

Flight Track Log - Related Links

Times and Time Zones

All times are in EST time to prevent confusion due to time zone crossing. See the N1419D flight status page for this flight to view local times or setup timezone preferences in your user account.

Time Position Orientation Groundspeed Altitude Reporting Facility
EST Latitude Longitude Course Direction KTS MPH feet Rate Location/Type
10:53AM 29.1719 -81.0614 273° West 64 74 400  Level Jacksonville Center
10:53AM 29.1722 -81.0686 273° West 68 78 600 780 Climbing Jacksonville Center
10:54AM 29.1786 -81.0922 287° West 73 84 1,500 660 Climbing Jacksonville Center
10:55AM 29.1831 -81.1136 283° West 72 83 1,900  Climbing Jacksonville Center
10:56AM 29.1878 -81.1397 282° West 87 100 1,600 -180 Descending Jacksonville Center
10:57AM 29.1964 -81.1586 298° West 69 79 1,600  Level Jacksonville Center
10:58AM 29.1967 -81.1797 271° West 77 89 1,600  Level Jacksonville Center
10:59AM 29.1758 -81.1944 212° Southwest 85 98 1,600  Level Jacksonville Center
11:00AM 29.1553 -81.2092 212° Southwest 85 98 1,600  Level Jacksonville Center
11:01AM 29.1367 -81.2283 222° Southwest 78 90 1,600 -120 Level Jacksonville Center
11:02AM 29.1181 -81.2456 219° Southwest 86 99 1,400 -360 Descending Jacksonville Center
11:03AM 29.0975 -81.2600 212° Southwest 85 98 900 -480 Descending Jacksonville Center
11:04AM 29.0767 -81.2722 207° Southwest 89 102 500  Descending Jacksonville Center
11:06AM 29.0583 -81.2917 239° Southwest 82 94 1,000 600 Climbing Jacksonville Center
11:07AM 29.0728 -81.2936 353° North 95 109 1,800 660 Climbing Jacksonville Center
11:08AM 29.1000 -81.2886 North 86 99 2,500 540 Climbing Jacksonville Center
11:09AM 29.1228 -81.2858 North 88 101 3,000 240 Climbing Jacksonville Center
11:10AM 29.1500 -81.2806 10° North 95 109 3,000  Level Jacksonville Center
11:11AM 29.1747 -81.2683 23° Northeast 94 108 3,000  Level Jacksonville Center
11:12AM 29.1953 -81.2464 43° Northeast 113 130 3,000  Level Jacksonville Center
11:13AM 29.2117 -81.2225 52° Northeast 118 136 3,000  Level Jacksonville Center
11:14AM 29.2303 -81.1958 51° Northeast 106 122 3,000  Level Jacksonville Center
11:15AM 29.2508 -81.1694 48° Northeast 112 129 3,000  Level Jacksonville Center
11:16AM 29.2714 -81.1475 43° Northeast 105 121 3,000  Level Jacksonville Center
11:17AM 29.2939 -81.1211 46° Northeast 110 127 3,000  Level Jacksonville Center
11:17AM 29.3147 -81.1089 27° Northeast 98 113 3,000  Level Jacksonville Center
11:19AM 29.3356 -81.1108 355° North 75 86 3,100  Climbing Jacksonville Center
11:20AM 29.3083 -81.1136 185° South 104 120 3,100 -60 Level Jacksonville Center
11:21AM 29.3003 -81.1258 233° Southwest 72 83 3,000  Descending Jacksonville Center
11:22AM 29.3233 -81.1278 356° North 79 91 3,100  Climbing Jacksonville Center
11:23AM 29.3314 -81.1061 67° East 130 150 3,100  Level Jacksonville Center
11:24AM 29.3042 -81.1019 172° South 98 113 3,100 -60 Level Jacksonville Center
11:25AM 29.3000 -81.1161 251° West 64 74 3,000  Descending Jacksonville Center
11:26AM 29.3150 -81.1325 316° Northwest 59 68 3,100  Climbing Jacksonville Center
11:27AM 29.3294 -81.1228 30° Northeast 118 136 3,100 -60 Level Jacksonville Center
11:28AM 29.3064 -81.1089 152° Southeast 109 125 3,000 -60 Descending Jacksonville Center
11:29AM 29.2833 -81.1164 196° South 83 96 3,000  Level Jacksonville Center
11:30AM 29.2600 -81.0906 136° Southeast 120 138 3,000  Level Jacksonville Center
11:31AM 29.2286 -81.0817 166° South 110 127 3,000  Level Jacksonville Center
11:32AM 29.2075 -81.0561 133° Southeast 124 143 3,000  Level Jacksonville Center
11:33AM 29.1861 -81.0206 125° Southeast 123 142 3,000  Level Jacksonville Center
11:34AM 29.1606 -80.9928 136° Southeast 112 129 3,000 -180 Level Jacksonville Center
11:35AM 29.1417 -80.9789 147° Southeast 116 133 2,700 -540 Descending Jacksonville Center
11:36AM 29.1142 -80.9628 153° Southeast 99 114 2,100 -540 Descending Jacksonville Center
11:37AM 29.0869 -80.9467 153° Southeast 103 119 1,600 -240 Descending Jacksonville Center
11:38AM 29.0636 -80.9350 156° South 94 108 1,600  Level Jacksonville Center
11:39AM 29.0453 -80.9592 229° Southwest 72 83 1,600  Level Jacksonville Center
11:40AM 29.0394 -80.9783 251° West 76 87 1,600  Level Jacksonville Center
11:41AM 29.0519 -80.9947 311° West 73 84 1,600  Level Jacksonville Center
11:42AM 29.0711 -81.0039 337° Northwest 77 89 1,600  Level Jacksonville Center
11:43AM 29.0919 -81.0131 339° North 73 84 1,600 60 Level Jacksonville Center
11:44AM 29.1128 -81.0150 355° North 85 98 1,800 300 Climbing Jacksonville Center
11:45AM 29.1106 -80.9936 97° East 88 101 2,300 240 Climbing Jacksonville Center
11:46AM 29.0833 -80.9894 172° South 110 127 2,400 180 Climbing Jacksonville Center
11:47AM 29.0664 -80.9778 149° Southeast 101 116 2,700 120 Climbing Jacksonville Center
11:48AM 29.0414 -80.9711 167° South 91 105 2,700  Level Jacksonville Center
11:49AM 29.0247 -80.9714 181° South 77 89 2,800 120 Climbing Jacksonville Center
11:50AM 29.0311 -80.9928 289° West 97 112 3,000 60 Climbing Jacksonville Center
11:51AM 29.0411 -80.9642 68° East 118 136 3,000  Level Jacksonville Center
11:52AM 29.0489 -80.9283 76° East 118 136 3,000 -60 Level Jacksonville Center
11:53AM 29.0672 -80.9017 52° Northeast 105 121 2,900  Descending Jacksonville Center
11:54AM 29.0878 -80.8753 48° Northeast 111 128 3,000 60 Climbing Jacksonville Center
11:55AM 29.1103 -80.8511 43° Northeast 112 129 3,100  Climbing Jacksonville Center
11:56AM 29.1350 -80.8292 38° Northeast 112 129 3,000 -60 Descending Jacksonville Center
11:57AM 29.1600 -80.8192 19° North 96 110 3,000  Level Jacksonville Center
11:58AM 29.1831 -80.8353 329° Northwest 77 89 3,000  Level Jacksonville Center
11:59AM 29.2122 -80.8300 North 110 127 3,000  Level Jacksonville Center
12:00PM 29.2392 -80.8150 26° Northeast 106 122 3,000  Level Jacksonville Center
12:01PM 29.2639 -80.7956 34° Northeast 117 135 3,000  Level Jacksonville Center
12:02PM 29.2406 -80.7722 139° Southeast 120 138 3,000  Level Jacksonville Center
12:03PM 29.2175 -80.7631 161° South 109 125 3,000  Level Jacksonville Center
12:04PM 29.1861 -80.7544 167° South 100 115 3,000  Level Jacksonville Center
12:05PM 29.2050 -80.7658 332° Northwest 82 94 3,000  Level Jacksonville Center
12:06PM 29.2322 -80.7700 352° North 91 105 3,000  Level Jacksonville Center
12:07PM 29.2514 -80.7861 324° Northwest 77 89 3,000 -120 Level Jacksonville Center
12:08PM 29.2558 -80.8100 282° West 91 105 2,800 -420 Descending Jacksonville Center
12:09PM 29.2564 -80.8383 271° West 90 104 2,200 -600 Descending Jacksonville Center
12:10PM 29.2567 -80.8669 271° West 91 105 1,600 -300 Descending Jacksonville Center
12:11PM 29.2447 -80.8936 243° Southwest 90 104 1,600  Level Jacksonville Center
12:12PM 29.2386 -80.9150 252° West 86 99 1,600  Level Jacksonville Center
12:13PM 29.2267 -80.9439 245° Southwest 96 110 1,600  Level Jacksonville Center
12:14PM 29.2144 -80.9750 246° West 101 116 1,600 -300 Level Jacksonville Center
12:15PM 29.2025 -81.0039 245° Southwest 96 110 1,000 -420 Descending Jacksonville Center
12:16PM 29.1883 -81.0278 236° Southwest 97 112 800 -240 Descending Jacksonville Center
12:18PM 29.1763 -81.0401 222° Southwest  Level FlightAware Approximate
12:25PM 29.1667 -81.0500 243° Southwest  Level FlightAware Approximate
12:26PM 29.1799 -81.0581 243° Southwest  Level Estimated
12:27PM 29.1799 -81.0581 243° Southwest  Level Estimated
12:28PM 29.1799 -81.0581 243° Southwest  Level Estimated
12:29PM 29.1799 -81.0581 243° Southwest  Level Estimated
12:30PM 29.1799 -81.0581 243° Southwest  Level Estimated
12:31PM 29.1799 -81.0581 243° Southwest  Level Estimated
12:32PM 29.1799 -81.0581 243° Southwest  Level Estimated
12:33PM 29.1799 -81.0581 243° Southwest  Level Estimated
12:34PM 29.1799 -81.0581 243° Southwest  Level Estimated
12:35PM 29.1799 -81.0581 243° Southwest  Level Estimated